• Join FlightAware (Why Join?)
  • Login
  • US Flag 
10:44AM EDT


 

Airport Tracker/Info


-or-


 

Live Flight TrackerFlight Track Log ✈ UAL335 ✈ 24-Apr-2013 ✈ KDEN - KTPA

Flight Track Log - Related Links

Times and Time Zones

All times are in EDT time to prevent confusion due to time zone crossing. See the UAL335 flight status page for this flight to view local times or setup timezone preferences in your user account.

Time Position Orientation Groundspeed Altitude Reporting Facility
EDT Latitude Longitude Course Direction KTS MPH feet Rate Location/Type
12:41PM 39.8000 -104.6667 163° South 187 215 7,100  Level Denver TRACON
12:42PM 39.7333 -104.6333 159° South 237 273 8,300 1,200 Climbing Denver TRACON
12:43PM 39.6865 -104.2143 163° South  Level Estimated
12:43PM 39.6939 -104.6083 154° Southeast 264 304 9,100  Level Denver Center
12:44PM 39.6277 -104.0619 161° South  Level Estimated
12:44PM 39.6117 -104.6131 183° South 295 339 11,200  Level Denver Center
12:45PM 39.5143 -104.1476 210° Southwest  Level FlightAware Approximate
12:45PM 39.5150 -104.6333 189° South 352 405 12,000  Level Denver Center
12:46PM 39.4561 -103.9951 163° South  Level Estimated
12:46PM 39.4033 -104.6556 189° South 372 428 15,200  Level Denver Center
12:47PM 39.3022 -104.6778 190° South 369 425 17,000 1,380 Climbing Denver Center
12:48PM 39.1833 -104.7083 191° South 412 474 18,100 1,080 Climbing Denver Center
12:49PM 39.0764 -104.7297 189° South 414 476 19,300 1,440 Climbing Denver Center
12:50PM 38.9519 -104.6969 168° South 446 513 21,100 1,560 Climbing Denver Center
12:51PM 38.8114 -104.6361 161° South 446 513 22,600 1,140 Climbing Denver Center
12:52PM 38.6844 -104.5842 162° South 465 535 23,500 960 Climbing Denver Center
12:53PM 38.5553 -104.5272 161° South 480 552 24,700 1,320 Climbing Denver Center
12:54PM 38.4217 -104.4986 170° South 482 555 26,300 1,440 Climbing Denver Center
12:55PM 38.2944 -104.4136 152° Southeast 511 588 27,700 1,200 Climbing Denver Center
12:56PM 38.1717 -104.3139 147° Southeast 519 597 28,800 960 Climbing Denver Center
12:57PM 38.0469 -104.2200 149° Southeast 517 595 29,700 1,140 Climbing Denver Center
12:58PM 37.9047 -104.1044 147° Southeast 515 593 31,200 1,080 Climbing Denver Center
12:59PM 37.7819 -104.0136 150° Southeast 509 586 32,000 540 Climbing Denver Center
01:00PM 37.6578 -103.9175 148° Southeast 515 593 32,400 540 Climbing Denver Center
01:01PM 37.5333 -103.8181 148° Southeast 523 602 33,200 720 Climbing Denver Center
01:02PM 37.4108 -103.7225 148° Southeast 522 601 34,000 660 Climbing Denver Center
01:03PM 37.2764 -103.6147 147° Southeast 517 595 34,600 480 Climbing Denver Center
01:04PM 37.1653 -103.5108 143° Southeast 521 600 35,000 180 Climbing Denver Center
01:05PM 37.0319 -103.3975 146° Southeast 519 597 35,000  Level Denver Center
01:06PM 36.9278 -103.2794 138° Southeast 533 613 35,000  Level Denver Center
01:07PM 36.8603 -103.0822 113° Southeast 559 643 35,000  Level Denver Center
01:08PM 36.8444 -102.8842 96° East 563 648 35,000  Level Albuquerque Center
01:10PM 36.8178 -102.6564 98° East 563 648 35,000  Level Albuquerque Center
01:11PM 36.7831 -102.4922 105° East 567 652 35,000  Level Albuquerque Center
01:12PM 36.7364 -102.2633 104° East 568 654 35,000  Level Albuquerque Center
01:13PM 36.6975 -102.0747 104° East 570 656 35,000  Level Albuquerque Center
01:14PM 36.6603 -101.8939 104° East 567 652 35,000  Level Albuquerque Center
01:15PM 36.5897 -101.5581 105° East 571 657 35,000  Level Kansas City Center
01:16PM 36.5772 -101.4983 105° East 570 656 35,000  Level Albuquerque Center
01:17PM 36.5322 -101.2883 105° East 567 652 35,000  Level Albuquerque Center
01:18PM 36.4944 -101.1083 105° East 566 651 35,000  Level Albuquerque Center
01:18PM 36.4683 -100.9858 105° East 568 654 35,000  Level Kansas City Center
01:19PM 36.4225 -100.7803 105° East 565 650 35,000  Level Kansas City Center
01:20PM 36.3819 -100.5908 105° East 568 654 35,000  Level Kansas City Center
01:21PM 36.3653 -100.5158 105° East 567 652 35,000  Level Albuquerque Center
01:22PM 36.3228 -100.3264 106° East 568 654 35,000  Level Albuquerque Center
01:23PM 36.2972 -100.2139 106° East 567 652 35,000  Level Kansas City Center
01:24PM 36.2558 -100.0236 105° East 569 655 35,000  Level Kansas City Center
01:25PM 36.2125 -99.8361 106° East 567 652 35,000  Level Kansas City Center
01:26PM 36.1614 -99.6106 106° East 566 651 35,000  Level Kansas City Center
01:27PM 36.1181 -99.4228 106° East 565 650 35,000  Level Kansas City Center
01:28PM 36.0794 -99.2561 106° East 564 649 35,000  Level Kansas City Center
01:29PM 36.0283 -99.0322 106° East 564 649 35,000  Level Kansas City Center
01:30PM 35.9853 -98.8464 106° East 564 649 35,000  Level Kansas City Center
01:31PM 35.9478 -98.6972 107° East 565 650 35,000  Level Kansas City Center
01:32PM 35.9031 -98.5111 106° East 564 649 35,000  Level Kansas City Center
01:33PM 35.8578 -98.3239 107° East 566 651 35,000  Level Kansas City Center
01:34PM 35.8136 -98.1383 106° East 564 649 35,000  Level Kansas City Center
01:35PM 35.7683 -97.9572 107° East 564 649 35,000  Level Kansas City Center
01:36PM 35.7136 -97.7342 107° East 566 651 35,000  Level Kansas City Center
01:37PM 35.6681 -97.5486 107° East 564 649 35,000  Level Kansas City Center
01:38PM 35.6294 -97.3958 107° East 564 649 35,000  Level Fort Worth Center
01:39PM 35.5833 -97.2069 107° East 574 661 35,000  Level Fort Worth Center
01:40PM 35.5350 -97.0258 108° East 574 661 35,000  Level Fort Worth Center
01:41PM 35.4864 -96.8425 108° East 567 652 35,000  Level Fort Worth Center
01:42PM 35.4394 -96.6594 107° East 562 647 35,000  Level Fort Worth Center
01:43PM 35.3922 -96.4789 108° East 562 647 35,000  Level Fort Worth Center
01:44PM 35.3536 -96.3344 108° East 562 647 35,000  Level Fort Worth Center
01:45PM 35.3039 -96.1417 107° East 557 641 35,000  Level Fort Worth Center
01:46PM 35.2561 -95.9594 108° East 557 641 35,000  Level Fort Worth Center
01:47PM 35.2081 -95.7822 108° East 557 641 35,000  Level Fort Worth Center
01:48PM 35.1239 -95.4675 108° East 569 655 35,000  Level Memphis Center
01:49PM 35.0767 -95.2894 108° East 569 655 35,000  Level Memphis Center
01:50PM 35.0272 -95.1117 109° East 564 649 35,000  Level Memphis Center
01:51PM 34.9797 -94.9342 108° East 553 636 35,000  Level Memphis Center
01:52PM 34.9300 -94.7542 109° East 553 636 35,000  Level Memphis Center
01:53PM 34.8875 -94.5950 108° East 553 636 35,000  Level Memphis Center
01:54PM 34.8389 -94.4206 109° East 553 636 35,000  Level Memphis Center
01:55PM 34.7861 -94.2436 110° East 548 631 35,000  Level Memphis Center
01:56PM 34.7372 -94.0694 109° East 554 638 35,000  Level Memphis Center
01:57PM 34.6881 -93.8956 109° East 554 638 35,000  Level Memphis Center
01:58PM 34.6386 -93.7244 109° East 549 632 35,000  Level Memphis Center
01:59PM 34.5869 -93.5508 110° East 544 626 35,000  Level Memphis Center
02:00PM 34.5408 -93.3828 108° East 544 626 35,000  Level Memphis Center
02:01PM 34.4886 -93.2119 110° East 538 619 35,000  Level Memphis Center
02:02PM 34.4344 -93.0214 109° East 538 619 35,000  Level Memphis Center
02:03PM 34.3836 -92.8511 110° East 538 619 35,000  Level Memphis Center
02:04PM 34.3325 -92.6861 111° Southeast 531 611 35,000  Level Memphis Center
02:05PM 34.2833 -92.5189 110° East 531 611 35,000  Level Memphis Center
02:06PM 34.2319 -92.3469 110° East 531 611 35,000  Level Memphis Center
02:07PM 34.1803 -92.1800 110° East 531 611 35,000  Level Memphis Center
02:08PM 34.1306 -92.0083 109° East 531 611 35,000  Level Memphis Center
02:09PM 34.0803 -91.8469 111° Southeast 531 611 35,000  Level Memphis Center
02:10PM 34.0342 -91.7006 111° Southeast 516 594 35,000  Level Memphis Center
02:11PM 33.9836 -91.5394 111° Southeast 516 594 35,000  Level Memphis Center
02:12PM 33.9328 -91.3761 111° Southeast 516 594 35,000  Level Memphis Center
02:13PM 33.8819 -91.2131 111° Southeast 515 593 35,000  Level Memphis Center
02:14PM 33.8306 -91.0547 111° Southeast 509 586 35,000  Level Memphis Center
02:15PM 33.7731 -90.8719 111° Southeast 515 593 35,000 -60 Level Memphis Center
02:16PM 33.7236 -90.7094 110° East 521 600 34,900  Descending Memphis Center
02:17PM 33.6697 -90.5444 111° Southeast 526 605 35,000  Climbing Memphis Center
02:18PM 33.6175 -90.3822 111° Southeast 526 605 35,000  Level Memphis Center
02:19PM 33.5653 -90.2200 111° Southeast 526 605 35,000  Level Memphis Center
02:20PM 33.5128 -90.0583 111° Southeast 526 605 35,000  Level Memphis Center
02:21PM 33.4622 -89.9014 111° Southeast 516 594 35,000  Level Memphis Center
02:22PM 33.4136 -89.7450 110° East 511 588 35,000  Level Memphis Center
02:23PM 33.3625 -89.5886 111° Southeast 506 582 35,000  Level Memphis Center
02:24PM 33.3094 -89.4325 112° Southeast 506 582 35,000  Level Memphis Center
02:26PM 33.2399 -89.2416 112° Southeast  Level FlightAware Approximate
02:26PM 33.2064 -89.1208 112° Southeast 501 577 35,000  Level Memphis Center
02:27PM 33.1525 -88.9628 112° Southeast 506 582 35,100  Climbing Memphis Center
02:28PM 33.0986 -88.8075 112° Southeast 506 582 35,000 -60 Descending Memphis Center
02:29PM 33.0464 -88.6497 112° Southeast 511 588 35,000  Level Memphis Center
02:31PM 32.9442 -88.3606 113° Southeast 493 567 35,000  Level Atlanta Center
02:32PM 32.8911 -88.2044 112° Southeast 503 579 35,000  Level Atlanta Center
02:33PM 32.8378 -88.0486 112° Southeast 503 579 35,000  Level Atlanta Center
02:34PM 32.7806 -87.8781 112° Southeast 503 579 35,000  Level Atlanta Center
02:35PM 32.7247 -87.7225 113° Southeast 503 579 35,000  Level Atlanta Center
02:36PM 32.6689 -87.5672 113° Southeast 503 579 35,000  Level Atlanta Center
02:37PM 32.6169 -87.4075 111° Southeast 503 579 35,000  Level Atlanta Center
02:38PM 32.5583 -87.2525 114° Southeast 508 585 35,000  Level Atlanta Center
02:39PM 32.5039 -87.0978 113° Southeast 508 585 35,000  Level Atlanta Center
02:40PM 32.4492 -86.9458 113° Southeast 502 578 35,000  Level Atlanta Center
02:41PM 32.3942 -86.7914 113° Southeast 507 583 35,000  Level Atlanta Center
02:42PM 32.3472 -86.6572 112° Southeast 501 577 35,000  Level Atlanta Center
02:43PM 32.2939 -86.5033 112° Southeast 506 582 35,000  Level Atlanta Center
02:45PM 32.1436 -86.2194 122° Southeast 508 585 35,000  Level Jacksonville Center
02:46PM 32.0319 -86.1003 138° Southeast 522 601 35,000  Level Jacksonville Center
02:47PM 31.9347 -85.9794 133° Southeast 512 589 35,000  Level Jacksonville Center
02:48PM 31.8394 -85.8661 135° Southeast 507 583 35,000  Level Jacksonville Center
02:49PM 31.7378 -85.7481 135° Southeast 502 578 35,000  Level Jacksonville Center
02:50PM 31.6400 -85.6331 135° Southeast 502 578 35,000  Level Jacksonville Center
02:51PM 31.5422 -85.5156 134° Southeast 502 578 35,000  Level Jacksonville Center
02:52PM 31.4464 -85.4056 136° Southeast 502 578 35,000  Level Jacksonville Center
02:53PM 31.3483 -85.2911 135° Southeast 502 578 35,000 -60 Level Jacksonville Center
02:54PM 31.2544 -85.1769 134° Southeast 497 572 34,900  Descending Jacksonville Center
02:55PM 31.1542 -85.0628 136° Southeast 502 578 35,000  Climbing Jacksonville Center
02:56PM 31.0581 -84.9492 135° Southeast 502 578 35,000  Level Jacksonville Center
02:57PM 30.9594 -84.8356 135° Southeast 495 570 35,000  Level Jacksonville Center
02:58PM 30.8547 -84.7197 136° Southeast 502 578 35,000  Level Jacksonville Center
02:59PM 30.7561 -84.6017 134° Southeast 509 586 35,000  Level Jacksonville Center
03:00PM 30.6553 -84.4889 136° Southeast 501 577 35,000  Level Jacksonville Center
03:01PM 30.5481 -84.3783 138° Southeast 506 582 35,000 -60 Level Jacksonville Center
03:02PM 30.4300 -84.2922 148° Southeast 506 582 34,900  Descending Jacksonville Center
03:03PM 30.3056 -84.2086 150° Southeast 511 588 35,000  Climbing Jacksonville Center
03:04PM 30.1750 -84.1275 152° Southeast 500 575 35,000 -60 Level Jacksonville Center
03:05PM 30.0589 -84.0492 150° Southeast 495 570 34,900  Descending Jacksonville Center
03:06PM 29.9403 -83.9736 151° Southeast 495 570 35,000  Climbing Jacksonville Center
03:07PM 29.8325 -83.9053 151° Southeast 495 570 35,000 -300 Level Jacksonville Center
03:08PM 29.7139 -83.8275 150° Southeast 495 570 34,400 -1,560 Descending Jacksonville Center
03:09PM 29.5975 -83.7525 151° Southeast 495 570 31,900 -2,820 Descending Jacksonville Center
03:10PM 29.4792 -83.6775 151° Southeast 495 570 28,800 -2,760 Descending Jacksonville Center
03:11PM 29.3606 -83.6025 151° Southeast 495 570 26,400 -1,920 Descending Jacksonville Center
03:12PM 29.2483 -83.5281 150° Southeast 484 557 25,000 -1,380 Descending Jacksonville Center
03:13PM 29.1464 -83.4608 150° Southeast 456 525 23,700 -1,260 Descending Jacksonville Center
03:14PM 29.0442 -83.3961 151° Southeast 428 493 22,500 -1,440 Descending Jacksonville Center
03:15PM 28.9442 -83.3339 151° Southeast 416 479 20,900 -1,560 Descending Jacksonville Center
03:16PM 28.8464 -83.2719 151° Southeast 407 468 19,400 -1,500 Descending Jacksonville Center
03:17PM 28.7525 -83.2075 149° Southeast 402 463 17,900 -1,560 Descending Jacksonville Center
03:19PM 28.6000 -83.1167 152° Southeast 378 435 15,500 -1,680 Descending Tampa TRACON
03:20PM 28.5167 -83.0667 152° Southeast 365 420 13,700 -1,260 Descending Tampa TRACON
03:21PM 28.4333 -83.0167 152° Southeast 324 373 13,000 -1,140 Descending Tampa TRACON
03:22PM 28.3500 -82.9667 152° Southeast 317 365 11,500 -2,100 Descending Tampa TRACON
03:23PM 28.2833 -82.9000 139° Southeast 296 341 8,800 -2,100 Descending Tampa TRACON
03:24PM 28.2667 -82.8167 103° East 277 319 7,400 -1,320 Descending Tampa TRACON
03:25PM 28.2667 -82.7333 90° East 277 319 6,200 -720 Descending Tampa TRACON
03:26PM 28.2500 -82.6500 103° East 242 278 6,000 -300 Descending Tampa TRACON
03:27PM 28.2333 -82.6000 111° Southeast 206 237 5,600 -900 Descending Tampa TRACON
03:28PM 28.1833 -82.5667 150° Southeast 181 208 4,300 -1,200 Descending Tampa TRACON
03:29PM 28.1333 -82.5333 150° Southeast 185 213 3,200 -1,080 Descending Tampa TRACON
03:30PM 28.0833 -82.5333 180° South 178 205 2,200 -960 Descending Tampa TRACON
03:31PM 28.0500 -82.5333 180° South 153 176 1,300 -900 Descending Tampa TRACON
03:32PM 28.0000 -82.5333 180° South 143 165 500 -840 Descending Tampa TRACON
03:34PM 27.9755 -82.5332 161° South  Level Estimated
03:41PM 27.9755 -82.5332 161° South  Level Estimated